Lane City, Texas
Current Conditions -  °F | °C
As of 11:15 AM on Thursday 27 Nov 2014 (Local Time) from KARM Reporting Station
Clear Clear  
Wind Chill: 62°   Ceiling: Unl
Heat Index: 62°   Visibility: 10mi
Dew Point: 32°   Wind: 9mph
Humidity: 32%   Direction: 50°NE
Pressure: 30.5"   Gusts: NA
Location:  29.22°N, 96.03°W
Report Text: KARM 271715Z AUTO 05008KT 10SM CLR 17/00 A3050 RMK AO2 T01661001
Loading
Personal Weather Stations






























Interactive Weather Map New forecast layout! Learn more

10-Day Weather Forecast

Advertisements
Track Severe Weather on mobile